sensor_id;sensor_type;location;lat;lon;timestamp;temperature;humidity
49385;DHT22;36795;45.028;38.968;2024-01-10T00:02:11;-4.70;78.90
49385;DHT22;36795;45.028;38.968;2024-01-10T00:04:59;-4.80;78.60
49385;DHT22;36795;45.028;38.968;2024-01-10T00:07:45;-4.80;79.00
49385;DHT22;36795;45.028;38.968;2024-01-10T00:10:32;-4.80;78.80
49385;DHT22;36795;45.028;38.968;2024-01-10T00:13:17;-4.80;78.90
49385;DHT22;36795;45.028;38.968;2024-01-10T00:16:04;-4.80;79.40
49385;DHT22;36795;45.028;38.968;2024-01-10T00:18:51;-4.70;79.30
49385;DHT22;36795;45.028;38.968;2024-01-10T00:21:37;-4.70;79.00
49385;DHT22;36795;45.028;38.968;2024-01-10T00:24:23;-4.60;78.90
49385;DHT22;36795;45.028;38.968;2024-01-10T00:27:10;-4.70;78.70
49385;DHT22;36795;45.028;38.968;2024-01-10T00:29:56;-4.70;78.90
49385;DHT22;36795;45.028;38.968;2024-01-10T00:32:43;-4.70;78.90
49385;DHT22;36795;45.028;38.968;2024-01-10T00:35:29;-4.80;78.70
49385;DHT22;36795;45.028;38.968;2024-01-10T00:38:15;-4.90;79.00
49385;DHT22;36795;45.028;38.968;2024-01-10T00:41:01;-5.00;78.60
49385;DHT22;36795;45.028;38.968;2024-01-10T00:43:48;-5.10;78.90
49385;DHT22;36795;45.028;38.968;2024-01-10T00:46:34;-5.00;79.40
49385;DHT22;36795;45.028;38.968;2024-01-10T00:49:21;-4.80;79.60
49385;DHT22;36795;45.028;38.968;2024-01-10T00:52:07;-4.80;79.10
49385;DHT22;36795;45.028;38.968;2024-01-10T00:54:53;-4.80;78.80
49385;DHT22;36795;45.028;38.968;2024-01-10T00:57:39;-4.80;78.80
49385;DHT22;36795;45.028;38.968;2024-01-10T01:00:25;-4.80;79.00
49385;DHT22;36795;45.028;38.968;2024-01-10T01:03:12;-4.80;78.90
49385;DHT22;36795;45.028;38.968;2024-01-10T01:05:58;-4.80;78.70
49385;DHT22;36795;45.028;38.968;2024-01-10T01:08:43;-4.90;78.60
49385;DHT22;36795;45.028;38.968;2024-01-10T01:11:30;-5.00;78.70
49385;DHT22;36795;45.028;38.968;2024-01-10T01:14:15;-5.00;79.00
49385;DHT22;36795;45.028;38.968;2024-01-10T01:17:02;-5.00;78.60
49385;DHT22;36795;45.028;38.968;2024-01-10T01:19:48;-5.00;79.10
49385;DHT22;36795;45.028;38.968;2024-01-10T01:22:35;-4.90;79.20
49385;DHT22;36795;45.028;38.968;2024-01-10T01:25:21;-4.90;78.80
49385;DHT22;36795;45.028;38.968;2024-01-10T01:28:08;-5.00;78.40
49385;DHT22;36795;45.028;38.968;2024-01-10T01:30:54;-5.00;78.90
49385;DHT22;36795;45.028;38.968;2024-01-10T01:33:41;-4.90;79.10
49385;DHT22;36795;45.028;38.968;2024-01-10T01:36:27;-4.70;79.30
49385;DHT22;36795;45.028;38.968;2024-01-10T01:39:13;-4.60;78.90
49385;DHT22;36795;45.028;38.968;2024-01-10T01:41:59;-4.70;78.50
49385;DHT22;36795;45.028;38.968;2024-01-10T01:44:46;-4.60;78.70
49385;DHT22;36795;45.028;38.968;2024-01-10T01:47:32;-4.50;78.70
49385;DHT22;36795;45.028;38.968;2024-01-10T01:50:20;-4.50;78.70
49385;DHT22;36795;45.028;38.968;2024-01-10T01:53:06;-4.50;78.50
49385;DHT22;36795;45.028;38.968;2024-01-10T01:55:52;-4.40;78.50
49385;DHT22;36795;45.028;38.968;2024-01-10T01:58:39;-4.30;78.50
49385;DHT22;36795;45.028;38.968;2024-01-10T02:01:26;-4.30;78.20
49385;DHT22;36795;45.028;38.968;2024-01-10T02:04:12;-4.30;78.00
49385;DHT22;36795;45.028;38.968;2024-01-10T02:06:58;-4.20;78.00
49385;DHT22;36795;45.028;38.968;2024-01-10T02:09:44;-4.20;77.70
49385;DHT22;36795;45.028;38.968;2024-01-10T02:12:31;-4.10;77.80
49385;DHT22;36795;45.028;38.968;2024-01-10T02:15:17;-4.00;77.70
49385;DHT22;36795;45.028;38.968;2024-01-10T02:18:03;-4.00;77.60
49385;DHT22;36795;45.028;38.968;2024-01-10T02:20:51;-3.90;77.50
49385;DHT22;36795;45.028;38.968;2024-01-10T02:23:38;-4.00;77.40
49385;DHT22;36795;45.028;38.968;2024-01-10T02:26:23;-3.90;77.70
49385;DHT22;36795;45.028;38.968;2024-01-10T02:29:10;-3.90;77.40
49385;DHT22;36795;45.028;38.968;2024-01-10T02:31:56;-3.90;77.60
49385;DHT22;36795;45.028;38.968;2024-01-10T02:34:42;-3.90;77.70
49385;DHT22;36795;45.028;38.968;2024-01-10T02:37:28;-3.90;77.70
49385;DHT22;36795;45.028;38.968;2024-01-10T02:40:14;-3.90;77.40
49385;DHT22;36795;45.028;38.968;2024-01-10T02:43:00;-3.90;77.70
49385;DHT22;36795;45.028;38.968;2024-01-10T02:45:46;-3.90;78.10
49385;DHT22;36795;45.028;38.968;2024-01-10T02:48:33;-3.90;78.10
49385;DHT22;36795;45.028;38.968;2024-01-10T02:51:19;-3.80;78.20
49385;DHT22;36795;45.028;38.968;2024-01-10T02:54:06;-3.80;77.90
49385;DHT22;36795;45.028;38.968;2024-01-10T02:56:52;-3.80;77.80
49385;DHT22;36795;45.028;38.968;2024-01-10T02:59:38;-3.90;77.50
49385;DHT22;36795;45.028;38.968;2024-01-10T03:02:24;-3.90;78.00
49385;DHT22;36795;45.028;38.968;2024-01-10T03:05:10;-4.00;77.80
49385;DHT22;36795;45.028;38.968;2024-01-10T03:07:57;-4.00;77.70
49385;DHT22;36795;45.028;38.968;2024-01-10T03:10:43;-4.10;77.60
49385;DHT22;36795;45.028;38.968;2024-01-10T03:13:29;-4.20;77.40
49385;DHT22;36795;45.028;38.968;2024-01-10T03:16:15;-4.30;78.10
49385;DHT22;36795;45.028;38.968;2024-01-10T03:19:01;-4.20;78.60
49385;DHT22;36795;45.028;38.968;2024-01-10T03:21:47;-4.10;78.70
49385;DHT22;36795;45.028;38.968;2024-01-10T03:24:34;-4.00;79.00
49385;DHT22;36795;45.028;38.968;2024-01-10T03:27:20;-4.00;78.20
49385;DHT22;36795;45.028;38.968;2024-01-10T03:30:07;-3.90;78.10
49385;DHT22;36795;45.028;38.968;2024-01-10T03:32:53;-3.90;77.90
49385;DHT22;36795;45.028;38.968;2024-01-10T03:35:39;-3.90;77.40
49385;DHT22;36795;45.028;38.968;2024-01-10T03:38:25;-4.00;77.50
49385;DHT22;36795;45.028;38.968;2024-01-10T03:41:15;-3.90;77.90
49385;DHT22;36795;45.028;38.968;2024-01-10T03:44:01;-3.80;77.70
49385;DHT22;36795;45.028;38.968;2024-01-10T03:46:47;-3.80;78.20
49385;DHT22;36795;45.028;38.968;2024-01-10T03:49:33;-3.80;77.70
49385;DHT22;36795;45.028;38.968;2024-01-10T03:52:20;-3.80;77.60
49385;DHT22;36795;45.028;38.968;2024-01-10T03:55:06;-3.80;77.70
49385;DHT22;36795;45.028;38.968;2024-01-10T03:57:52;-3.70;77.80
49385;DHT22;36795;45.028;38.968;2024-01-10T04:00:38;-3.70;77.40
49385;DHT22;36795;45.028;38.968;2024-01-10T04:03:24;-3.70;77.60
49385;DHT22;36795;45.028;38.968;2024-01-10T04:06:10;-3.80;77.50
49385;DHT22;36795;45.028;38.968;2024-01-10T04:08:56;-3.80;77.50
49385;DHT22;36795;45.028;38.968;2024-01-10T04:11:47;-3.80;77.80
49385;DHT22;36795;45.028;38.968;2024-01-10T04:14:33;-3.70;77.70
49385;DHT22;36795;45.028;38.968;2024-01-10T04:17:19;-3.80;77.40
49385;DHT22;36795;45.028;38.968;2024-01-10T04:20:06;-3.70;77.50
49385;DHT22;36795;45.028;38.968;2024-01-10T04:22:51;-3.70;77.40
49385;DHT22;36795;45.028;38.968;2024-01-10T04:25:38;-3.70;77.50
49385;DHT22;36795;45.028;38.968;2024-01-10T04:28:24;-3.60;77.50
49385;DHT22;36795;45.028;38.968;2024-01-10T04:31:11;-3.50;77.50
49385;DHT22;36795;45.028;38.968;2024-01-10T04:33:57;-3.40;77.40
49385;DHT22;36795;45.028;38.968;2024-01-10T04:36:43;-3.40;77.30
49385;DHT22;36795;45.028;38.968;2024-01-10T04:39:29;-3.40;77.20
49385;DHT22;36795;45.028;38.968;2024-01-10T04:42:15;-3.50;76.90
49385;DHT22;36795;45.028;38.968;2024-01-10T04:45:01;-3.50;76.80
49385;DHT22;36795;45.028;38.968;2024-01-10T04:47:49;-3.50;76.60
49385;DHT22;36795;45.028;38.968;2024-01-10T04:50:35;-3.60;77.10
49385;DHT22;36795;45.028;38.968;2024-01-10T04:53:21;-3.60;76.40
49385;DHT22;36795;45.028;38.968;2024-01-10T04:56:08;-3.60;76.30
49385;DHT22;36795;45.028;38.968;2024-01-10T04:58:54;-3.70;76.20
49385;DHT22;36795;45.028;38.968;2024-01-10T05:01:40;-3.70;76.60
49385;DHT22;36795;45.028;38.968;2024-01-10T05:04:27;-3.70;77.00
49385;DHT22;36795;45.028;38.968;2024-01-10T05:07:12;-3.60;77.00
49385;DHT22;36795;45.028;38.968;2024-01-10T05:09:59;-3.40;77.10
49385;DHT22;36795;45.028;38.968;2024-01-10T05:12:45;-3.50;76.40
49385;DHT22;36795;45.028;38.968;2024-01-10T05:15:32;-3.60;76.50
49385;DHT22;36795;45.028;38.968;2024-01-10T05:18:18;-3.50;77.00
49385;DHT22;36795;45.028;38.968;2024-01-10T05:21:04;-3.50;76.90
49385;DHT22;36795;45.028;38.968;2024-01-10T05:23:51;-3.50;76.90
49385;DHT22;36795;45.028;38.968;2024-01-10T05:26:37;-3.40;77.00
49385;DHT22;36795;45.028;38.968;2024-01-10T05:29:22;-3.40;76.70
49385;DHT22;36795;45.028;38.968;2024-01-10T05:32:10;-3.40;76.90
49385;DHT22;36795;45.028;38.968;2024-01-10T05:34:56;-3.30;76.40
49385;DHT22;36795;45.028;38.968;2024-01-10T05:37:42;-3.40;76.10
49385;DHT22;36795;45.028;38.968;2024-01-10T05:40:28;-3.50;76.20
49385;DHT22;36795;45.028;38.968;2024-01-10T05:43:17;-3.50;76.10
49385;DHT22;36795;45.028;38.968;2024-01-10T05:46:03;-3.40;76.40
49385;DHT22;36795;45.028;38.968;2024-01-10T05:48:50;-3.30;76.50
49385;DHT22;36795;45.028;38.968;2024-01-10T05:51:36;-3.30;76.50
49385;DHT22;36795;45.028;38.968;2024-01-10T05:54:24;-3.30;76.00
49385;DHT22;36795;45.028;38.968;2024-01-10T05:57:10;-3.40;76.20
49385;DHT22;36795;45.028;38.968;2024-01-10T05:59:56;-3.50;75.90
49385;DHT22;36795;45.028;38.968;2024-01-10T06:02:43;-3.40;76.20
49385;DHT22;36795;45.028;38.968;2024-01-10T06:05:29;-3.40;76.10
49385;DHT22;36795;45.028;38.968;2024-01-10T06:08:17;-3.40;76.00
49385;DHT22;36795;45.028;38.968;2024-01-10T06:11:04;-3.30;76.10
49385;DHT22;36795;45.028;38.968;2024-01-10T06:13:54;-3.30;76.20
49385;DHT22;36795;45.028;38.968;2024-01-10T06:16:40;-3.30;75.90
49385;DHT22;36795;45.028;38.968;2024-01-10T06:19:26;-3.20;76.00
49385;DHT22;36795;45.028;38.968;2024-01-10T06:22:13;-3.20;75.70
49385;DHT22;36795;45.028;38.968;2024-01-10T06:24:59;-3.20;74.90
49385;DHT22;36795;45.028;38.968;2024-01-10T06:27:45;-3.30;74.40
49385;DHT22;36795;45.028;38.968;2024-01-10T06:30:31;-3.40;74.20
49385;DHT22;36795;45.028;38.968;2024-01-10T06:33:18;-3.40;74.70
49385;DHT22;36795;45.028;38.968;2024-01-10T06:36:06;-3.30;75.20
49385;DHT22;36795;45.028;38.968;2024-01-10T06:39:06;-3.10;75.40
49385;DHT22;36795;45.028;38.968;2024-01-10T06:41:55;-2.90;75.00
49385;DHT22;36795;45.028;38.968;2024-01-10T06:44:43;-2.80;74.20
49385;DHT22;36795;45.028;38.968;2024-01-10T06:47:31;-2.90;74.00
49385;DHT22;36795;45.028;38.968;2024-01-10T06:50:17;-3.00;73.90
49385;DHT22;36795;45.028;38.968;2024-01-10T06:53:06;-2.90;74.10
49385;DHT22;36795;45.028;38.968;2024-01-10T06:55:52;-2.90;74.80
49385;DHT22;36795;45.028;38.968;2024-01-10T06:58:39;-2.90;74.20
49385;DHT22;36795;45.028;38.968;2024-01-10T07:01:33;-2.80;74.20
49385;DHT22;36795;45.028;38.968;2024-01-10T07:04:19;-2.80;73.80
49385;DHT22;36795;45.028;38.968;2024-01-10T07:07:09;-2.90;73.40
49385;DHT22;36795;45.028;38.968;2024-01-10T07:09:59;-2.90;73.50
49385;DHT22;36795;45.028;38.968;2024-01-10T07:12:48;-3.00;73.10
49385;DHT22;36795;45.028;38.968;2024-01-10T07:15:36;-3.00;73.30
49385;DHT22;36795;45.028;38.968;2024-01-10T07:18:24;-3.10;73.40
49385;DHT22;36795;45.028;38.968;2024-01-10T07:21:10;-3.00;73.70
49385;DHT22;36795;45.028;38.968;2024-01-10T07:23:57;-2.90;73.90
49385;DHT22;36795;45.028;38.968;2024-01-10T07:26:42;-2.70;72.80
49385;DHT22;36795;45.028;38.968;2024-01-10T07:29:28;-2.50;72.60
49385;DHT22;36795;45.028;38.968;2024-01-10T07:32:14;-2.40;72.00
49385;DHT22;36795;45.028;38.968;2024-01-10T07:35:00;-2.40;71.40
49385;DHT22;36795;45.028;38.968;2024-01-10T07:37:46;-2.30;71.00
49385;DHT22;36795;45.028;38.968;2024-01-10T07:40:33;-2.40;70.80
49385;DHT22;36795;45.028;38.968;2024-01-10T07:43:20;-2.10;70.40
49385;DHT22;36795;45.028;38.968;2024-01-10T07:46:06;-1.50;69.00
49385;DHT22;36795;45.028;38.968;2024-01-10T07:48:52;-1.30;67.70
49385;DHT22;36795;45.028;38.968;2024-01-10T07:51:41;-0.90;67.90
49385;DHT22;36795;45.028;38.968;2024-01-10T07:54:28;-0.80;66.30
49385;DHT22;36795;45.028;38.968;2024-01-10T07:57:15;-0.90;65.70
49385;DHT22;36795;45.028;38.968;2024-01-10T08:00:06;-1.10;65.80
49385;DHT22;36795;45.028;38.968;2024-01-10T08:02:56;-1.30;66.10
49385;DHT22;36795;45.028;38.968;2024-01-10T08:05:44;-1.20;67.50
49385;DHT22;36795;45.028;38.968;2024-01-10T08:08:30;-0.40;67.10
49385;DHT22;36795;45.028;38.968;2024-01-10T08:11:16;0.20;65.00
49385;DHT22;36795;45.028;38.968;2024-01-10T08:14:03;0.50;62.20
49385;DHT22;36795;45.028;38.968;2024-01-10T08:16:49;0.20;61.60
49385;DHT22;36795;45.028;38.968;2024-01-10T08:19:36;-0.30;62.40
49385;DHT22;36795;45.028;38.968;2024-01-10T08:22:23;-0.40;63.70
49385;DHT22;36795;45.028;38.968;2024-01-10T08:25:09;0.20;64.00
49385;DHT22;36795;45.028;38.968;2024-01-10T08:27:54;0.60;63.10
49385;DHT22;36795;45.028;38.968;2024-01-10T08:30:42;2.20;60.80
49385;DHT22;36795;45.028;38.968;2024-01-10T08:33:28;3.40;57.90
49385;DHT22;36795;45.028;38.968;2024-01-10T08:36:16;3.50;54.30
49385;DHT22;36795;45.028;38.968;2024-01-10T08:39:01;3.60;55.40
49385;DHT22;36795;45.028;38.968;2024-01-10T08:41:49;3.90;52.60
49385;DHT22;36795;45.028;38.968;2024-01-10T08:44:35;3.00;53.50
49385;DHT22;36795;45.028;38.968;2024-01-10T08:47:22;1.80;55.00
49385;DHT22;36795;45.028;38.968;2024-01-10T08:50:08;1.00;56.90
49385;DHT22;36795;45.028;38.968;2024-01-10T08:52:54;0.80;59.50
49385;DHT22;36795;45.028;38.968;2024-01-10T08:55:40;1.30;58.80
49385;DHT22;36795;45.028;38.968;2024-01-10T08:58:27;2.30;56.70
49385;DHT22;36795;45.028;38.968;2024-01-10T09:01:13;2.00;55.50
49385;DHT22;36795;45.028;38.968;2024-01-10T09:03:59;1.70;56.20
49385;DHT22;36795;45.028;38.968;2024-01-10T09:06:45;1.60;57.50
49385;DHT22;36795;45.028;38.968;2024-01-10T09:09:31;2.20;58.30
49385;DHT22;36795;45.028;38.968;2024-01-10T09:12:17;3.90;55.30
49385;DHT22;36795;45.028;38.968;2024-01-10T09:15:03;6.00;52.90
49385;DHT22;36795;45.028;38.968;2024-01-10T09:17:50;6.80;48.40
49385;DHT22;36795;45.028;38.968;2024-01-10T09:20:38;6.20;48.30
49385;DHT22;36795;45.028;38.968;2024-01-10T09:23:24;5.00;50.60
49385;DHT22;36795;45.028;38.968;2024-01-10T09:26:12;4.50;52.20
49385;DHT22;36795;45.028;38.968;2024-01-10T09:28:58;3.70;52.60
49385;DHT22;36795;45.028;38.968;2024-01-10T09:31:44;2.80;53.90
49385;DHT22;36795;45.028;38.968;2024-01-10T09:34:31;2.30;55.80
49385;DHT22;36795;45.028;38.968;2024-01-10T09:37:18;3.10;56.40
49385;DHT22;36795;45.028;38.968;2024-01-10T09:40:05;3.50;52.40
49385;DHT22;36795;45.028;38.968;2024-01-10T09:42:54;3.00;52.70
49385;DHT22;36795;45.028;38.968;2024-01-10T09:45:43;3.50;54.20
49385;DHT22;36795;45.028;38.968;2024-01-10T09:48:32;3.90;52.00
49385;DHT22;36795;45.028;38.968;2024-01-10T09:51:18;4.40;51.10
49385;DHT22;36795;45.028;38.968;2024-01-10T09:54:05;5.00;51.50
49385;DHT22;36795;45.028;38.968;2024-01-10T09:56:50;5.90;50.10
49385;DHT22;36795;45.028;38.968;2024-01-10T09:59:37;6.10;49.40
49385;DHT22;36795;45.028;38.968;2024-01-10T10:02:23;5.30;49.30
49385;DHT22;36795;45.028;38.968;2024-01-10T10:05:17;4.20;50.20
49385;DHT22;36795;45.028;38.968;2024-01-10T10:08:06;2.90;51.00
49385;DHT22;36795;45.028;38.968;2024-01-10T10:10:52;3.20;53.20
49385;DHT22;36795;45.028;38.968;2024-01-10T10:13:39;3.10;52.70
49385;DHT22;36795;45.028;38.968;2024-01-10T10:16:28;2.60;55.00
49385;DHT22;36795;45.028;38.968;2024-01-10T10:19:23;3.50;55.40
49385;DHT22;36795;45.028;38.968;2024-01-10T10:22:13;3.70;52.80
49385;DHT22;36795;45.028;38.968;2024-01-10T10:25:04;3.30;53.70
49385;DHT22;36795;45.028;38.968;2024-01-10T10:28:09;2.70;54.30
49385;DHT22;36795;45.028;38.968;2024-01-10T10:31:00;2.30;56.60
49385;DHT22;36795;45.028;38.968;2024-01-10T10:33:49;2.50;55.20
49385;DHT22;36795;45.028;38.968;2024-01-10T10:36:39;2.70;55.40
49385;DHT22;36795;45.028;38.968;2024-01-10T10:39:25;3.60;54.70
49385;DHT22;36795;45.028;38.968;2024-01-10T10:42:17;4.80;52.00
49385;DHT22;36795;45.028;38.968;2024-01-10T10:45:23;6.10;49.60
49385;DHT22;36795;45.028;38.968;2024-01-10T10:48:19;6.70;47.30
49385;DHT22;36795;45.028;38.968;2024-01-10T10:51:12;6.70;46.80
49385;DHT22;36795;45.028;38.968;2024-01-10T10:54:04;6.60;47.60
49385;DHT22;36795;45.028;38.968;2024-01-10T10:56:52;6.60;47.80
49385;DHT22;36795;45.028;38.968;2024-01-10T10:59:42;6.90;47.10
49385;DHT22;36795;45.028;38.968;2024-01-10T11:02:28;6.80;46.50
49385;DHT22;36795;45.028;38.968;2024-01-10T11:05:15;6.40;47.10
49385;DHT22;36795;45.028;38.968;2024-01-10T11:08:03;5.80;48.10
49385;DHT22;36795;45.028;38.968;2024-01-10T11:10:51;4.90;49.30
49385;DHT22;36795;45.028;38.968;2024-01-10T11:20:13;2.50;55.00
49385;DHT22;36795;45.028;38.968;2024-01-10T11:26:14;2.00;57.00
49385;DHT22;36795;45.028;38.968;2024-01-10T11:29:00;2.00;57.10
49385;DHT22;36795;45.028;38.968;2024-01-10T11:31:50;1.90;57.20
49385;DHT22;36795;45.028;38.968;2024-01-10T11:34:38;1.80;57.40
49385;DHT22;36795;45.028;38.968;2024-01-10T11:37:28;1.70;58.20
49385;DHT22;36795;45.028;38.968;2024-01-10T11:40:46;1.60;58.80
49385;DHT22;36795;45.028;38.968;2024-01-10T11:43:32;1.30;60.10
49385;DHT22;36795;45.028;38.968;2024-01-10T11:46:19;1.20;60.60
49385;DHT22;36795;45.028;38.968;2024-01-10T11:49:13;0.90;61.00
49385;DHT22;36795;45.028;38.968;2024-01-10T11:52:04;0.70;61.90
49385;DHT22;36795;45.028;38.968;2024-01-10T11:54:51;0.60;62.70
49385;DHT22;36795;45.028;38.968;2024-01-10T11:57:39;0.60;63.10
49385;DHT22;36795;45.028;38.968;2024-01-10T12:00:26;0.50;63.60
49385;DHT22;36795;45.028;38.968;2024-01-10T12:03:14;0.30;64.60
49385;DHT22;36795;45.028;38.968;2024-01-10T12:06:00;0.30;65.30
49385;DHT22;36795;45.028;38.968;2024-01-10T12:08:47;0.30;65.70
49385;DHT22;36795;45.028;38.968;2024-01-10T12:11:33;0.30;66.10
49385;DHT22;36795;45.028;38.968;2024-01-10T12:14:20;0.40;66.30
49385;DHT22;36795;45.028;38.968;2024-01-10T12:17:07;0.30;66.40
49385;DHT22;36795;45.028;38.968;2024-01-10T12:19:57;0.20;66.60
49385;DHT22;36795;45.028;38.968;2024-01-10T12:22:44;0.20;67.00
49385;DHT22;36795;45.028;38.968;2024-01-10T12:25:31;0.10;67.30
49385;DHT22;36795;45.028;38.968;2024-01-10T12:28:17;0.10;67.70
49385;DHT22;36795;45.028;38.968;2024-01-10T12:31:04;0.10;67.80
49385;DHT22;36795;45.028;38.968;2024-01-10T12:33:50;0.00;68.10
49385;DHT22;36795;45.028;38.968;2024-01-10T12:36:43;0.00;68.60
49385;DHT22;36795;45.028;38.968;2024-01-10T12:39:29;0.00;68.90
49385;DHT22;36795;45.028;38.968;2024-01-10T12:42:17;0.00;69.20
49385;DHT22;36795;45.028;38.968;2024-01-10T12:45:03;0.00;69.30
49385;DHT22;36795;45.028;38.968;2024-01-10T12:47:53;0.00;69.50
49385;DHT22;36795;45.028;38.968;2024-01-10T12:50:39;0.00;70.00
49385;DHT22;36795;45.028;38.968;2024-01-10T12:53:28;0.00;70.00
49385;DHT22;36795;45.028;38.968;2024-01-10T12:56:14;0.00;70.10
49385;DHT22;36795;45.028;38.968;2024-01-10T12:59:01;0.00;70.20
49385;DHT22;36795;45.028;38.968;2024-01-10T13:01:46;0.00;70.40
49385;DHT22;36795;45.028;38.968;2024-01-10T13:04:34;-0.10;70.50
49385;DHT22;36795;45.028;38.968;2024-01-10T13:07:23;-0.20;70.80
49385;DHT22;36795;45.028;38.968;2024-01-10T13:10:11;-0.30;71.20
49385;DHT22;36795;45.028;38.968;2024-01-10T13:12:57;-0.30;71.40
49385;DHT22;36795;45.028;38.968;2024-01-10T13:15:44;-0.40;71.70
49385;DHT22;36795;45.028;38.968;2024-01-10T13:18:31;-0.50;72.30
49385;DHT22;36795;45.028;38.968;2024-01-10T13:21:18;-0.50;72.40
49385;DHT22;36795;45.028;38.968;2024-01-10T13:24:04;-0.50;72.60
49385;DHT22;36795;45.028;38.968;2024-01-10T13:26:51;-0.50;72.90
49385;DHT22;36795;45.028;38.968;2024-01-10T13:29:36;-0.50;73.00
49385;DHT22;36795;45.028;38.968;2024-01-10T13:32:24;-0.50;73.10
49385;DHT22;36795;45.028;38.968;2024-01-10T13:35:11;-0.60;73.00
49385;DHT22;36795;45.028;38.968;2024-01-10T13:37:58;-0.60;73.30
49385;DHT22;36795;45.028;38.968;2024-01-10T13:40:44;-0.60;73.60
49385;DHT22;36795;45.028;38.968;2024-01-10T13:43:30;-0.50;73.90
49385;DHT22;36795;45.028;38.968;2024-01-10T13:46:16;-0.50;73.70
49385;DHT22;36795;45.028;38.968;2024-01-10T13:49:03;-0.50;73.80
49385;DHT22;36795;45.028;38.968;2024-01-10T13:51:49;-0.50;73.60
49385;DHT22;36795;45.028;38.968;2024-01-10T13:54:35;-0.60;74.00
49385;DHT22;36795;45.028;38.968;2024-01-10T13:57:22;-0.60;74.30
49385;DHT22;36795;45.028;38.968;2024-01-10T14:00:09;-0.60;74.40
49385;DHT22;36795;45.028;38.968;2024-01-10T14:03:00;-0.60;74.60
49385;DHT22;36795;45.028;38.968;2024-01-10T14:05:47;-0.50;74.70
49385;DHT22;36795;45.028;38.968;2024-01-10T14:08:33;-0.50;74.80
49385;DHT22;36795;45.028;38.968;2024-01-10T14:11:19;-0.60;75.00
49385;DHT22;36795;45.028;38.968;2024-01-10T14:14:06;-0.60;75.00
49385;DHT22;36795;45.028;38.968;2024-01-10T14:16:52;-0.60;75.30
49385;DHT22;36795;45.028;38.968;2024-01-10T14:19:38;-0.70;75.40
49385;DHT22;36795;45.028;38.968;2024-01-10T14:22:25;-0.70;75.80
49385;DHT22;36795;45.028;38.968;2024-01-10T14:25:11;-0.60;75.90
49385;DHT22;36795;45.028;38.968;2024-01-10T14:27:58;-0.60;75.90
49385;DHT22;36795;45.028;38.968;2024-01-10T14:30:49;-0.50;75.90
49385;DHT22;36795;45.028;38.968;2024-01-10T14:33:38;-0.50;76.00
49385;DHT22;36795;45.028;38.968;2024-01-10T14:36:32;-0.50;76.10
49385;DHT22;36795;45.028;38.968;2024-01-10T14:39:21;-0.50;76.20
49385;DHT22;36795;45.028;38.968;2024-01-10T14:42:08;-0.50;76.30
49385;DHT22;36795;45.028;38.968;2024-01-10T14:44:54;-0.50;76.60
49385;DHT22;36795;45.028;38.968;2024-01-10T14:47:41;-0.40;76.40
49385;DHT22;36795;45.028;38.968;2024-01-10T14:50:26;-0.40;76.60
49385;DHT22;36795;45.028;38.968;2024-01-10T14:53:12;-0.40;76.70
49385;DHT22;36795;45.028;38.968;2024-01-10T14:55:58;-0.40;76.70
49385;DHT22;36795;45.028;38.968;2024-01-10T14:58:45;-0.30;76.50
49385;DHT22;36795;45.028;38.968;2024-01-10T15:01:32;-0.30;76.70
49385;DHT22;36795;45.028;38.968;2024-01-10T15:04:20;-0.30;76.80
49385;DHT22;36795;45.028;38.968;2024-01-10T15:07:06;-0.30;76.70
49385;DHT22;36795;45.028;38.968;2024-01-10T15:09:54;-0.30;76.60
49385;DHT22;36795;45.028;38.968;2024-01-10T15:12:40;-0.30;76.70
49385;DHT22;36795;45.028;38.968;2024-01-10T15:15:28;-0.30;76.90
49385;DHT22;36795;45.028;38.968;2024-01-10T15:18:19;-0.20;77.00
49385;DHT22;36795;45.028;38.968;2024-01-10T15:21:08;-0.20;77.00
49385;DHT22;36795;45.028;38.968;2024-01-10T15:23:54;-0.20;77.00
49385;DHT22;36795;45.028;38.968;2024-01-10T15:26:41;-0.20;77.10
49385;DHT22;36795;45.028;38.968;2024-01-10T15:29:28;-0.20;77.10
49385;DHT22;36795;45.028;38.968;2024-01-10T15:32:15;-0.20;77.20
49385;DHT22;36795;45.028;38.968;2024-01-10T15:35:02;-0.10;77.20
49385;DHT22;36795;45.028;38.968;2024-01-10T15:37:50;-0.10;77.20
49385;DHT22;36795;45.028;38.968;2024-01-10T15:40:36;0.00;77.20
49385;DHT22;36795;45.028;38.968;2024-01-10T15:43:24;0.00;77.30
49385;DHT22;36795;45.028;38.968;2024-01-10T15:46:18;0.10;77.20
49385;DHT22;36795;45.028;38.968;2024-01-10T15:49:06;0.10;77.10
49385;DHT22;36795;45.028;38.968;2024-01-10T15:51:52;0.10;77.30
49385;DHT22;36795;45.028;38.968;2024-01-10T15:54:39;0.10;77.40
49385;DHT22;36795;45.028;38.968;2024-01-10T15:57:25;0.10;77.30
49385;DHT22;36795;45.028;38.968;2024-01-10T16:00:12;0.10;77.40
49385;DHT22;36795;45.028;38.968;2024-01-10T16:02:59;0.10;77.50
49385;DHT22;36795;45.028;38.968;2024-01-10T16:05:45;0.10;77.60
49385;DHT22;36795;45.028;38.968;2024-01-10T16:08:32;0.10;77.60
49385;DHT22;36795;45.028;38.968;2024-01-10T16:11:17;0.10;77.70
49385;DHT22;36795;45.028;38.968;2024-01-10T16:14:04;0.10;77.90
49385;DHT22;36795;45.028;38.968;2024-01-10T16:16:50;0.10;77.90
49385;DHT22;36795;45.028;38.968;2024-01-10T16:19:37;0.10;78.00
49385;DHT22;36795;45.028;38.968;2024-01-10T16:22:22;0.10;78.10
49385;DHT22;36795;45.028;38.968;2024-01-10T16:25:09;0.10;77.90
49385;DHT22;36795;45.028;38.968;2024-01-10T16:27:55;0.10;78.10
49385;DHT22;36795;45.028;38.968;2024-01-10T16:30:41;0.10;78.30
49385;DHT22;36795;45.028;38.968;2024-01-10T16:33:27;0.10;78.50
49385;DHT22;36795;45.028;38.968;2024-01-10T16:36:14;0.20;78.60
49385;DHT22;36795;45.028;38.968;2024-01-10T16:38:59;0.20;78.60
49385;DHT22;36795;45.028;38.968;2024-01-10T16:41:46;0.20;78.60
49385;DHT22;36795;45.028;38.968;2024-01-10T16:44:32;0.10;78.60
49385;DHT22;36795;45.028;38.968;2024-01-10T16:47:19;0.10;78.80
49385;DHT22;36795;45.028;38.968;2024-01-10T16:50:05;0.20;79.00
49385;DHT22;36795;45.028;38.968;2024-01-10T16:52:52;0.20;78.90
49385;DHT22;36795;45.028;38.968;2024-01-10T16:55:38;0.20;78.90
49385;DHT22;36795;45.028;38.968;2024-01-10T16:58:24;0.10;79.00
49385;DHT22;36795;45.028;38.968;2024-01-10T17:01:14;0.10;79.20
49385;DHT22;36795;45.028;38.968;2024-01-10T17:04:01;0.10;79.40
49385;DHT22;36795;45.028;38.968;2024-01-10T17:06:46;0.10;79.30
49385;DHT22;36795;45.028;38.968;2024-01-10T17:09:33;0.10;79.40
49385;DHT22;36795;45.028;38.968;2024-01-10T17:12:19;0.10;79.40
49385;DHT22;36795;45.028;38.968;2024-01-10T17:15:05;0.20;79.30
49385;DHT22;36795;45.028;38.968;2024-01-10T17:17:59;0.20;79.30
49385;DHT22;36795;45.028;38.968;2024-01-10T17:20:51;0.20;79.40
49385;DHT22;36795;45.028;38.968;2024-01-10T17:23:37;0.20;79.50
49385;DHT22;36795;45.028;38.968;2024-01-10T17:26:23;0.30;79.50
49385;DHT22;36795;45.028;38.968;2024-01-10T17:29:11;0.30;79.60
49385;DHT22;36795;45.028;38.968;2024-01-10T17:31:57;0.40;79.50
49385;DHT22;36795;45.028;38.968;2024-01-10T17:34:44;0.40;79.50
49385;DHT22;36795;45.028;38.968;2024-01-10T17:37:33;0.40;79.50